PWSweather.com
Personal Weather Stations
Station Observations
KETX01
Ketx, PatraGR 26331

KetxPatraGR 26331

Lat: 38.238889, Lon: 21.751111

Elevation: 56

Station Type: Davis Instruments / Vantage Pro2 Plus

http://meteopatras.eu

Latest ConditionsUpdated 3:50:01 PM GMT+02:02 Sunday, Jun 16, 2019
Currently Today's Max Today's Min Today's Average
Temperature 87.9°F31.1°C 92.2°F33.4°C 74.2°F23.4°C 82.3°F27.9°C
Dew Point 59.8°F15.4°C 68.3°F20.2°C 58.0°F14.4°C 64.0°F17.8°C
Winds 8.1 mph NW13.0 kmh NW 9.2 mph -14.8 kmh - - 1.9 mph 3.1 kmh
Wind Gusts 12.7 mph20.4 kmh 13.8 mph22.2 kmh - -
Humidity 39% 74% 32% 56%
Pressure 29.86 in1011.2 mb 29.87 in1011.5 mb 29.81 in1009.5 mb -
Hour Temp Dew Point Humidity Winds Wind Gusts Pressure Precip Precip Rate Daily Precip Total
03:50 PM 87.9°F31.1°C 59.8°F15.4°C 39% 8.1 mph NW13.0 kmh NW 12.7 mph20.4 kmh 29.86 in1011.2 mb - 0.00 in0.0 mm 0.00 in0.0 mm
03:45 PM 88.4°F31.3°C 59.5°F15.3°C 38% 4.6 mph NW7.4 kmh NW 8.1 mph13.0 kmh 29.84 in1010.5 mb - 0.00 in0.0 mm 0.00 in0.0 mm
03:40 PM 88.8°F31.6°C 59.9°F15.5°C 38% 3.5 mph NW5.6 kmh NW 3.5 mph5.6 kmh 29.82 in1009.8 mb - 0.00 in0.0 mm 0.00 in0.0 mm
03:35 PM 88.8°F31.6°C 59.9°F15.5°C 38% 2.3 mph NW3.7 kmh NW 3.5 mph5.6 kmh 29.82 in1009.8 mb - 0.00 in0.0 mm 0.00 in0.0 mm
03:30 PM 88.7°F31.5°C 60.5°F15.8°C 39% 1.2 mph NW1.9 kmh NW 2.3 mph3.7 kmh 29.82 in1009.8 mb - 0.00 in0.0 mm 0.00 in0.0 mm
03:25 PM 88.9°F31.6°C 60.7°F15.9°C 39% 3.5 mph NW5.6 kmh NW 3.5 mph5.6 kmh 29.83 in1010.2 mb - 0.00 in0.0 mm 0.00 in0.0 mm
03:20 PM 89.2°F31.8°C 61.0°F16.1°C 39% 3.5 mph WNW5.6 kmh WNW 5.8 mph9.3 kmh 29.82 in1009.8 mb - 0.00 in0.0 mm 0.00 in0.0 mm
03:15 PM 89.3°F31.8°C 62.5°F16.9°C 41% 3.5 mph WNW5.6 kmh WNW 5.8 mph9.3 kmh 29.82 in1009.8 mb - 0.00 in0.0 mm 0.00 in0.0 mm
03:10 PM 89.7°F32.1°C 62.9°F17.2°C 41% 4.6 mph WNW7.4 kmh WNW 8.1 mph13.0 kmh 29.82 in1009.8 mb - 0.00 in0.0 mm 0.00 in0.0 mm
03:05 PM 89.9°F32.2°C 62.3°F16.8°C 40% 3.5 mph WNW5.6 kmh WNW 3.5 mph5.6 kmh 29.82 in1009.8 mb - 0.00 in0.0 mm 0.00 in0.0 mm
03:00 PM 90.1°F32.3°C 61.1°F16.2°C 38% 3.5 mph WSW5.6 kmh WSW 3.5 mph5.6 kmh 29.81 in1009.5 mb - 0.00 in0.0 mm 0.00 in0.0 mm
02:55 PM 90.9°F32.7°C 61.0°F16.1°C 37% 4.6 mph W7.4 kmh W 10.4 mph16.7 kmh 29.81 in1009.5 mb - 0.00 in0.0 mm 0.00 in0.0 mm
02:50 PM 90.2°F32.3°C 58.8°F14.9°C 35% 1.2 mph WSW1.9 kmh WSW 3.5 mph5.6 kmh 29.81 in1009.5 mb - 0.00 in0.0 mm 0.00 in0.0 mm
02:45 PM 89.9°F32.2°C 59.4°F15.2°C 36% 3.5 mph W5.6 kmh W 3.5 mph5.6 kmh 29.81 in1009.5 mb - 0.00 in0.0 mm 0.00 in0.0 mm
02:40 PM 89.6°F32.0°C 59.1°F15.1°C 36% 2.3 mph WNW3.7 kmh WNW 3.5 mph5.6 kmh 29.82 in1009.8 mb - 0.00 in0.0 mm 0.00 in0.0 mm
02:35 PM 89.5°F31.9°C 59.8°F15.4°C 37% 3.5 mph WNW5.6 kmh WNW 3.5 mph5.6 kmh 29.82 in1009.8 mb - 0.00 in0.0 mm 0.00 in0.0 mm
02:30 PM 89.4°F31.9°C 58.9°F14.9°C 36% 3.5 mph WSW5.6 kmh WSW 3.5 mph5.6 kmh 29.82 in1009.8 mb - 0.00 in0.0 mm 0.00 in0.0 mm
02:25 PM 89.3°F31.8°C 58.1°F14.5°C 35% 2.3 mph SW3.7 kmh SW 3.5 mph5.6 kmh 29.82 in1009.8 mb - 0.00 in0.0 mm 0.00 in0.0 mm
02:20 PM 90.1°F32.3°C 59.6°F15.3°C 36% 4.6 mph W7.4 kmh W 6.9 mph11.1 kmh 29.82 in1009.8 mb - 0.00 in0.0 mm 0.00 in0.0 mm
02:15 PM 91.5°F33.1°C 59.2°F15.1°C 34% 4.6 mph NW7.4 kmh NW 10.4 mph16.7 kmh 29.82 in1009.8 mb - 0.00 in0.0 mm 0.00 in0.0 mm
02:10 PM 92.2°F33.4°C 58.9°F14.9°C 33% 3.5 mph W5.6 kmh W 8.1 mph13.0 kmh 29.82 in1009.8 mb - 0.00 in0.0 mm 0.00 in0.0 mm
02:05 PM 92.1°F33.4°C 58.9°F14.9°C 33% 4.6 mph NW7.4 kmh NW 10.4 mph16.7 kmh 29.82 in1009.8 mb - 0.00 in0.0 mm 0.00 in0.0 mm
02:00 PM 92.1°F33.4°C 58.0°F14.4°C 32% 8.1 mph N13.0 kmh N 11.5 mph18.5 kmh 29.82 in1009.8 mb - 0.00 in0.0 mm 0.00 in0.0 mm
01:55 PM 92.1°F33.4°C 58.9°F14.9°C 33% 4.6 mph NW7.4 kmh NW 10.4 mph16.7 kmh 29.82 in1009.8 mb - 0.00 in0.0 mm 0.00 in0.0 mm
01:50 PM 92.1°F33.4°C 58.9°F14.9°C 33% 5.8 mph NNE9.3 kmh NNE 9.2 mph14.8 kmh 29.82 in1009.8 mb - 0.00 in0.0 mm 0.00 in0.0 mm
01:45 PM 92.1°F33.4°C 59.7°F15.4°C 34% 4.6 mph N7.4 kmh N 8.1 mph13.0 kmh 29.82 in1009.8 mb - 0.00 in0.0 mm 0.00 in0.0 mm
01:40 PM 91.9°F33.3°C 59.5°F15.3°C 34% 4.6 mph NNW7.4 kmh NNW 6.9 mph11.1 kmh 29.82 in1009.8 mb - 0.00 in0.0 mm 0.00 in0.0 mm
01:35 PM 91.5°F33.1°C 60.0°F15.6°C 35% 4.6 mph N7.4 kmh N 9.2 mph14.8 kmh 29.83 in1010.2 mb - 0.00 in0.0 mm 0.00 in0.0 mm
01:30 PM 91.5°F33.1°C 60.0°F15.6°C 35% 6.9 mph N11.1 kmh N 13.8 mph22.2 kmh 29.83 in1010.2 mb - 0.00 in0.0 mm 0.00 in0.0 mm
01:25 PM 91.0°F32.8°C 60.3°F15.7°C 36% 3.5 mph NNE5.6 kmh NNE 6.9 mph11.1 kmh 29.83 in1010.2 mb - 0.00 in0.0 mm 0.00 in0.0 mm
01:20 PM 90.9°F32.7°C 60.3°F15.7°C 36% 4.6 mph NE7.4 kmh NE 9.2 mph14.8 kmh 29.83 in1010.2 mb - 0.00 in0.0 mm 0.00 in0.0 mm
01:15 PM 91.1°F32.8°C 60.4°F15.8°C 36% 8.1 mph N13.0 kmh N 10.4 mph16.7 kmh 29.83 in1010.2 mb - 0.00 in0.0 mm 0.00 in0.0 mm
01:10 PM 90.6°F32.6°C 60.0°F15.6°C 36% 6.9 mph N11.1 kmh N 9.2 mph14.8 kmh 29.83 in1010.2 mb - 0.00 in0.0 mm 0.00 in0.0 mm
01:05 PM 90.9°F32.7°C 60.3°F15.7°C 36% 8.1 mph NNE13.0 kmh NNE 9.2 mph14.8 kmh 29.83 in1010.2 mb - 0.00 in0.0 mm 0.00 in0.0 mm
01:00 PM 91.7°F33.2°C 60.2°F15.7°C 35% 9.2 mph NNW14.8 kmh NNW 12.7 mph20.4 kmh 29.83 in1010.2 mb - 0.00 in0.0 mm 0.00 in0.0 mm
12:55 PM 91.5°F33.1°C 60.0°F15.6°C 35% 3.5 mph N5.6 kmh N 8.1 mph13.0 kmh 29.83 in1010.2 mb - 0.00 in0.0 mm 0.00 in0.0 mm
12:50 PM 91.5°F33.1°C 60.7°F15.9°C 36% 2.3 mph NNE3.7 kmh NNE 11.5 mph18.5 kmh 29.83 in1010.2 mb - 0.00 in0.0 mm 0.00 in0.0 mm
12:45 PM 91.1°F32.8°C 61.2°F16.2°C 37% 2.3 mph NW3.7 kmh NW 6.9 mph11.1 kmh 29.83 in1010.2 mb - 0.00 in0.0 mm 0.00 in0.0 mm
11:35 AM 90.6°F32.6°C 60.8°F16.0°C 37% 3.5 mph W5.6 kmh W 3.5 mph5.6 kmh 29.84 in1010.5 mb - 0.00 in0.0 mm 0.00 in0.0 mm
11:30 AM 90.1°F32.3°C 61.0°F16.1°C 38% 1.2 mph WNW1.9 kmh WNW 3.5 mph5.6 kmh 29.85 in1010.8 mb - 0.00 in0.0 mm 0.00 in0.0 mm
11:25 AM 90.3°F32.4°C 60.5°F15.8°C 37% 3.5 mph WNW5.6 kmh WNW 8.1 mph13.0 kmh 29.85 in1010.8 mb - 0.00 in0.0 mm 0.00 in0.0 mm
11:20 AM 90.3°F32.4°C 61.2°F16.2°C 38% 3.5 mph WSW5.6 kmh WSW 4.6 mph7.4 kmh 29.85 in1010.8 mb - 0.00 in0.0 mm 0.00 in0.0 mm
11:15 AM 90.3°F32.4°C 61.2°F16.2°C 38% 3.5 mph WSW5.6 kmh WSW 6.9 mph11.1 kmh 29.85 in1010.8 mb - 0.00 in0.0 mm 0.00 in0.0 mm
11:10 AM 90.4°F32.4°C 62.1°F16.7°C 39% 3.5 mph WNW5.6 kmh WNW 3.5 mph5.6 kmh 29.85 in1010.8 mb - 0.00 in0.0 mm 0.00 in0.0 mm
11:05 AM 90.2°F32.3°C 62.6°F17.0°C 40% 2.3 mph WSW3.7 kmh WSW 3.5 mph5.6 kmh 29.85 in1010.8 mb - 0.00 in0.0 mm 0.00 in0.0 mm
11:00 AM 89.8°F32.1°C 63.0°F17.2°C 41% 2.3 mph WSW3.7 kmh WSW 3.5 mph5.6 kmh 29.85 in1010.8 mb - 0.00 in0.0 mm 0.00 in0.0 mm
10:55 AM 89.2°F31.8°C 63.1°F17.3°C 42% 1.2 mph NW1.9 kmh NW 2.3 mph3.7 kmh 29.85 in1010.8 mb - 0.00 in0.0 mm 0.00 in0.0 mm
10:50 AM 89.3°F31.8°C 63.2°F17.3°C 42% 4.6 mph NW7.4 kmh NW 5.8 mph9.3 kmh 29.85 in1010.8 mb - 0.00 in0.0 mm 0.00 in0.0 mm
10:45 AM 88.9°F31.6°C 63.5°F17.5°C 43% 1.2 mph WSW1.9 kmh WSW 3.5 mph5.6 kmh 29.85 in1010.8 mb - 0.00 in0.0 mm 0.00 in0.0 mm
10:40 AM 89.2°F31.8°C 63.8°F17.7°C 43% 2.3 mph W3.7 kmh W 3.5 mph5.6 kmh 29.85 in1010.8 mb - 0.00 in0.0 mm 0.00 in0.0 mm
10:35 AM 89.2°F31.8°C 62.4°F16.9°C 41% 2.3 mph W3.7 kmh W 3.5 mph5.6 kmh 29.85 in1010.8 mb - 0.00 in0.0 mm 0.00 in0.0 mm
10:30 AM 88.9°F31.6°C 62.9°F17.2°C 42% 2.3 mph NW3.7 kmh NW 4.6 mph7.4 kmh 29.85 in1010.8 mb - 0.00 in0.0 mm 0.00 in0.0 mm
10:25 AM 88.6°F31.4°C 60.5°F15.8°C 39% 1.2 mph WSW1.9 kmh WSW 2.3 mph3.7 kmh 29.85 in1010.8 mb - 0.00 in0.0 mm 0.00 in0.0 mm
10:20 AM 88.5°F31.4°C 61.8°F16.6°C 41% 2.3 mph WSW3.7 kmh WSW 3.5 mph5.6 kmh 29.85 in1010.8 mb - 0.00 in0.0 mm 0.00 in0.0 mm
10:15 AM 88.5°F31.4°C 62.5°F16.9°C 42% 1.2 mph WSW1.9 kmh WSW 3.5 mph5.6 kmh 29.86 in1011.2 mb - 0.00 in0.0 mm 0.00 in0.0 mm
10:10 AM 88.6°F31.4°C 61.2°F16.2°C 40% 2.3 mph WSW3.7 kmh WSW 3.5 mph5.6 kmh 29.86 in1011.2 mb - 0.00 in0.0 mm 0.00 in0.0 mm
10:05 AM 88.5°F31.4°C 61.8°F16.6°C 41% 1.2 mph WNW1.9 kmh WNW 3.5 mph5.6 kmh 29.86 in1011.2 mb - 0.00 in0.0 mm 0.00 in0.0 mm
10:00 AM 88.0°F31.1°C 61.3°F16.3°C 41% 2.3 mph WNW3.7 kmh WNW 3.5 mph5.6 kmh 29.86 in1011.2 mb - 0.00 in0.0 mm 0.00 in0.0 mm
09:55 AM 87.2°F30.7°C 61.3°F16.3°C 42% 1.2 mph WNW1.9 kmh WNW 2.3 mph3.7 kmh 29.86 in1011.2 mb - 0.00 in0.0 mm 0.00 in0.0 mm
09:50 AM 86.9°F30.5°C 61.1°F16.2°C 42% 2.3 mph W3.7 kmh W 3.5 mph5.6 kmh 29.86 in1011.2 mb - 0.00 in0.0 mm 0.00 in0.0 mm
09:45 AM 86.7°F30.4°C 60.9°F16.1°C 42% 1.2 mph SW1.9 kmh SW 3.5 mph5.6 kmh 29.86 in1011.2 mb - 0.00 in0.0 mm 0.00 in0.0 mm
09:40 AM 86.3°F30.2°C 61.2°F16.2°C 43% 2.3 mph SW3.7 kmh SW 3.5 mph5.6 kmh 29.86 in1011.2 mb - 0.00 in0.0 mm 0.00 in0.0 mm
09:35 AM 85.7°F29.8°C 61.3°F16.3°C 44% 2.3 mph SW3.7 kmh SW 3.5 mph5.6 kmh 29.86 in1011.2 mb - 0.00 in0.0 mm 0.00 in0.0 mm
09:30 AM 85.4°F29.7°C 62.8°F17.1°C 47% 1.2 mph SW1.9 kmh SW 3.5 mph5.6 kmh 29.86 in1011.2 mb - 0.00 in0.0 mm 0.00 in0.0 mm
09:25 AM 84.9°F29.4°C 63.6°F17.6°C 49% 1.2 mph SSW1.9 kmh SSW 2.3 mph3.7 kmh 29.86 in1011.2 mb - 0.00 in0.0 mm 0.00 in0.0 mm
09:20 AM 84.8°F29.3°C 63.5°F17.5°C 49% 2.3 mph W3.7 kmh W 3.5 mph5.6 kmh 29.86 in1011.2 mb - 0.00 in0.0 mm 0.00 in0.0 mm
09:15 AM 84.9°F29.4°C 64.2°F17.9°C 50% 2.3 mph W3.7 kmh W 3.5 mph5.6 kmh 29.86 in1011.2 mb - 0.00 in0.0 mm 0.00 in0.0 mm
09:10 AM 84.7°F29.3°C 65.1°F18.4°C 52% 1.2 mph W1.9 kmh W 2.3 mph3.7 kmh 29.86 in1011.2 mb - 0.00 in0.0 mm 0.00 in0.0 mm
09:05 AM 84.7°F29.3°C 65.7°F18.7°C 53% 2.3 mph WSW3.7 kmh WSW 3.5 mph5.6 kmh 29.86 in1011.2 mb - 0.00 in0.0 mm 0.00 in0.0 mm
09:00 AM 84.8°F29.3°C 65.7°F18.7°C 53% 3.5 mph SW5.6 kmh SW 3.5 mph5.6 kmh 29.86 in1011.2 mb - 0.00 in0.0 mm 0.00 in0.0 mm
08:55 AM 84.7°F29.3°C 65.7°F18.7°C 53% 2.3 mph SW3.7 kmh SW 3.5 mph5.6 kmh 29.86 in1011.2 mb - 0.00 in0.0 mm 0.00 in0.0 mm
08:45 AM 84.3°F29.1°C 64.8°F18.2°C 52% 1.2 mph WNW1.9 kmh WNW 3.5 mph5.6 kmh 29.86 in1011.2 mb - 0.00 in0.0 mm 0.00 in0.0 mm
08:40 AM 83.7°F28.7°C 65.3°F18.5°C 54% 1.2 mph WNW1.9 kmh WNW 2.3 mph3.7 kmh 29.86 in1011.2 mb - 0.00 in0.0 mm 0.00 in0.0 mm
08:35 AM 83.3°F28.5°C 65.5°F18.6°C 55% 1.2 mph WNW1.9 kmh WNW 2.3 mph3.7 kmh 29.86 in1011.2 mb - 0.00 in0.0 mm 0.00 in0.0 mm
08:30 AM 82.7°F28.2°C 66.4°F19.1°C 58% 1.2 mph WNW1.9 kmh WNW 3.5 mph5.6 kmh 29.86 in1011.2 mb - 0.00 in0.0 mm 0.00 in0.0 mm
08:25 AM 82.3°F27.9°C 66.5°F19.2°C 59% 2.3 mph W3.7 kmh W 3.5 mph5.6 kmh 29.86 in1011.2 mb - 0.00 in0.0 mm 0.00 in0.0 mm
08:20 AM 82.4°F28.0°C 66.6°F19.2°C 59% 1.2 mph W1.9 kmh W 3.5 mph5.6 kmh 29.86 in1011.2 mb - 0.00 in0.0 mm 0.00 in0.0 mm
08:15 AM 82.3°F27.9°C 67.0°F19.4°C 60% 1.2 mph W1.9 kmh W 3.5 mph5.6 kmh 29.86 in1011.2 mb - 0.00 in0.0 mm 0.00 in0.0 mm
08:10 AM 82.2°F27.9°C 66.5°F19.2°C 59% 2.3 mph W3.7 kmh W 3.5 mph5.6 kmh 29.86 in1011.2 mb - 0.00 in0.0 mm 0.00 in0.0 mm
08:05 AM 82.6°F28.1°C 66.3°F19.1°C 58% 2.3 mph W3.7 kmh W 3.5 mph5.6 kmh 29.86 in1011.2 mb - 0.00 in0.0 mm 0.00 in0.0 mm
07:55 AM 83.1°F28.4°C 65.3°F18.5°C 55% 1.2 mph S1.9 kmh S 3.5 mph5.6 kmh 29.86 in1011.2 mb - 0.00 in0.0 mm 0.00 in0.0 mm
07:40 AM 81.6°F27.6°C 65.4°F18.6°C 58% Calm Calm -- 29.86 in1011.2 mb - 0.00 in0.0 mm 0.00 in0.0 mm
07:35 AM 81.0°F27.2°C 64.8°F18.2°C 58% Calm Calm 1.2 mph1.9 kmh 29.85 in1010.8 mb - 0.00 in0.0 mm 0.00 in0.0 mm
07:25 AM 80.3°F26.8°C 64.6°F18.1°C 59% 1.2 mph S1.9 kmh S 2.3 mph3.7 kmh 29.85 in1010.8 mb - 0.00 in0.0 mm 0.00 in0.0 mm
07:20 AM 80.0°F26.7°C 65.3°F18.5°C 61% 1.2 mph S1.9 kmh S 3.5 mph5.6 kmh 29.86 in1011.2 mb - 0.00 in0.0 mm 0.00 in0.0 mm
07:15 AM 79.7°F26.5°C 65.1°F18.4°C 61% 1.2 mph S1.9 kmh S 2.3 mph3.7 kmh 29.85 in1010.8 mb - 0.00 in0.0 mm 0.00 in0.0 mm
07:10 AM 79.5°F26.4°C 65.8°F18.8°C 63% 1.2 mph SSE1.9 kmh SSE 2.3 mph3.7 kmh 29.85 in1010.8 mb - 0.00 in0.0 mm 0.00 in0.0 mm
07:05 AM 79.2°F26.2°C 66.4°F19.1°C 65% Calm Calm 1.2 mph1.9 kmh 29.85 in1010.8 mb - 0.00 in0.0 mm 0.00 in0.0 mm
07:00 AM 78.8°F26.0°C 66.5°F19.2°C 66% Calm Calm -- 29.85 in1010.8 mb - 0.00 in0.0 mm 0.00 in0.0 mm
06:55 AM 78.5°F25.8°C 66.2°F19.0°C 66% Calm Calm -- 29.85 in1010.8 mb - 0.00 in0.0 mm 0.00 in0.0 mm
06:40 AM 77.5°F25.3°C 66.5°F19.2°C 69% Calm Calm -- 29.85 in1010.8 mb - 0.00 in0.0 mm 0.00 in0.0 mm
06:35 AM 77.1°F25.1°C 66.6°F19.2°C 70% Calm Calm -- 29.85 in1010.8 mb - 0.00 in0.0 mm 0.00 in0.0 mm
06:30 AM 76.6°F24.8°C 66.1°F18.9°C 70% Calm Calm -- 29.85 in1010.8 mb - 0.00 in0.0 mm 0.00 in0.0 mm
06:25 AM 76.2°F24.6°C 66.1°F18.9°C 71% Calm Calm -- 29.85 in1010.8 mb - 0.00 in0.0 mm 0.00 in0.0 mm
06:20 AM 75.7°F24.3°C 65.7°F18.7°C 71% Calm Calm -- 29.85 in1010.8 mb - 0.00 in0.0 mm 0.00 in0.0 mm
06:15 AM 75.5°F24.2°C 65.0°F18.3°C 70% Calm Calm -- 29.85 in1010.8 mb - 0.00 in0.0 mm 0.00 in0.0 mm
06:10 AM 75.5°F24.2°C 65.0°F18.3°C 70% Calm Calm -- 29.84 in1010.5 mb - 0.00 in0.0 mm 0.00 in0.0 mm
06:05 AM 75.4°F24.1°C 65.3°F18.5°C 71% 1.2 mph SE1.9 kmh SE 1.2 mph1.9 kmh 29.84 in1010.5 mb - 0.00 in0.0 mm 0.00 in0.0 mm
06:00 AM 75.3°F24.1°C 65.2°F18.4°C 71% 1.2 mph SE1.9 kmh SE 2.3 mph3.7 kmh 29.84 in1010.5 mb - 0.00 in0.0 mm 0.00 in0.0 mm
05:55 AM 75.1°F23.9°C 65.1°F18.4°C 71% Calm Calm -- 29.85 in1010.8 mb - 0.00 in0.0 mm 0.00 in0.0 mm
05:50 AM 75.1°F23.9°C 64.6°F18.1°C 70% Calm Calm -- 29.85 in1010.8 mb - 0.00 in0.0 mm 0.00 in0.0 mm
05:45 AM 75.0°F23.9°C 64.9°F18.3°C 71% Calm Calm -- 29.84 in1010.5 mb - 0.00 in0.0 mm 0.00 in0.0 mm
05:40 AM 74.8°F23.8°C 64.3°F17.9°C 70% Calm Calm -- 29.85 in1010.8 mb - 0.00 in0.0 mm 0.00 in0.0 mm
05:30 AM 74.5°F23.6°C 64.1°F17.8°C 70% 1.2 mph SE1.9 kmh SE 2.3 mph3.7 kmh 29.85 in1010.8 mb - 0.00 in0.0 mm 0.00 in0.0 mm
05:25 AM 74.4°F23.6°C 64.0°F17.8°C 70% 1.2 mph SE1.9 kmh SE 2.3 mph3.7 kmh 29.85 in1010.8 mb - 0.00 in0.0 mm 0.00 in0.0 mm
05:20 AM 74.3°F23.5°C 63.9°F17.7°C 70% Calm Calm 1.2 mph1.9 kmh 29.85 in1010.8 mb - 0.00 in0.0 mm 0.00 in0.0 mm
05:15 AM 74.2°F23.4°C 63.8°F17.7°C 70% 2.3 mph SE3.7 kmh SE 3.5 mph5.6 kmh 29.84 in1010.5 mb - 0.00 in0.0 mm 0.00 in0.0 mm
05:10 AM 74.2°F23.4°C 63.8°F17.7°C 70% 2.3 mph SE3.7 kmh SE 3.5 mph5.6 kmh 29.84 in1010.5 mb - 0.00 in0.0 mm 0.00 in0.0 mm
05:05 AM 74.3°F23.5°C 64.3°F17.9°C 71% 2.3 mph SE3.7 kmh SE 3.5 mph5.6 kmh 29.84 in1010.5 mb - 0.00 in0.0 mm 0.00 in0.0 mm
05:00 AM 74.5°F23.6°C 64.5°F18.1°C 71% 2.3 mph SE3.7 kmh SE 3.5 mph5.6 kmh 29.84 in1010.5 mb - 0.00 in0.0 mm 0.00 in0.0 mm
04:55 AM 74.8°F23.8°C 65.2°F18.4°C 72% 2.3 mph SE3.7 kmh SE 3.5 mph5.6 kmh 29.84 in1010.5 mb - 0.00 in0.0 mm 0.00 in0.0 mm
04:50 AM 75.1°F23.9°C 65.5°F18.6°C 72% Calm Calm 2.3 mph3.7 kmh 29.84 in1010.5 mb - 0.00 in0.0 mm 0.00 in0.0 mm
04:45 AM 75.2°F24.0°C 65.6°F18.7°C 72% Calm Calm -- 29.84 in1010.5 mb - 0.00 in0.0 mm 0.00 in0.0 mm
04:40 AM 75.0°F23.9°C 65.4°F18.6°C 72% Calm Calm 2.3 mph3.7 kmh 29.84 in1010.5 mb - 0.00 in0.0 mm 0.00 in0.0 mm
04:35 AM 74.8°F23.8°C 66.0°F18.9°C 74% 2.3 mph NW3.7 kmh NW 2.3 mph3.7 kmh 29.84 in1010.5 mb - 0.00 in0.0 mm 0.00 in0.0 mm
04:30 AM 74.7°F23.7°C 65.5°F18.6°C 73% Calm Calm -- 29.84 in1010.5 mb - 0.00 in0.0 mm 0.00 in0.0 mm
04:25 AM 74.7°F23.7°C 65.5°F18.6°C 73% Calm Calm -- 29.84 in1010.5 mb - 0.00 in0.0 mm 0.00 in0.0 mm
04:20 AM 74.8°F23.8°C 65.6°F18.7°C 73% 2.3 mph NW3.7 kmh NW 3.5 mph5.6 kmh 29.84 in1010.5 mb - 0.00 in0.0 mm 0.00 in0.0 mm
04:15 AM 75.0°F23.9°C 65.8°F18.8°C 73% Calm Calm -- 29.84 in1010.5 mb - 0.00 in0.0 mm 0.00 in0.0 mm
04:10 AM 75.1°F23.9°C 65.9°F18.8°C 73% 1.2 mph NW1.9 kmh NW 3.5 mph5.6 kmh 29.84 in1010.5 mb - 0.00 in0.0 mm 0.00 in0.0 mm
04:05 AM 75.1°F23.9°C 65.9°F18.8°C 73% Calm Calm -- 29.84 in1010.5 mb - 0.00 in0.0 mm 0.00 in0.0 mm
04:00 AM 75.0°F23.9°C 65.4°F18.6°C 72% Calm Calm -- 29.84 in1010.5 mb - 0.00 in0.0 mm 0.00 in0.0 mm
03:55 AM 75.0°F23.9°C 65.4°F18.6°C 72% 1.2 mph NW1.9 kmh NW 2.3 mph3.7 kmh 29.84 in1010.5 mb - 0.00 in0.0 mm 0.00 in0.0 mm
03:50 AM 75.1°F23.9°C 65.1°F18.4°C 71% Calm Calm -- 29.84 in1010.5 mb - 0.00 in0.0 mm 0.00 in0.0 mm
03:45 AM 75.3°F24.1°C 65.2°F18.4°C 71% 1.2 mph NW1.9 kmh NW 1.2 mph1.9 kmh 29.84 in1010.5 mb - 0.00 in0.0 mm 0.00 in0.0 mm
03:40 AM 75.5°F24.2°C 65.0°F18.3°C 70% 1.2 mph NW1.9 kmh NW 2.3 mph3.7 kmh 29.84 in1010.5 mb - 0.00 in0.0 mm 0.00 in0.0 mm
03:35 AM 75.7°F24.3°C 65.2°F18.4°C 70% Calm Calm 3.5 mph5.6 kmh 29.84 in1010.5 mb - 0.00 in0.0 mm 0.00 in0.0 mm
03:30 AM 75.8°F24.3°C 65.3°F18.5°C 70% Calm Calm 2.3 mph3.7 kmh 29.84 in1010.5 mb - 0.00 in0.0 mm 0.00 in0.0 mm
03:25 AM 75.8°F24.3°C 65.3°F18.5°C 70% 2.3 mph NW3.7 kmh NW 3.5 mph5.6 kmh 29.84 in1010.5 mb - 0.00 in0.0 mm 0.00 in0.0 mm
03:20 AM 75.9°F24.4°C 65.0°F18.3°C 69% 2.3 mph NW3.7 kmh NW 3.5 mph5.6 kmh 29.84 in1010.5 mb - 0.00 in0.0 mm 0.00 in0.0 mm
03:15 AM 75.9°F24.4°C 65.4°F18.6°C 70% 1.2 mph NW1.9 kmh NW 2.3 mph3.7 kmh 29.84 in1010.5 mb - 0.00 in0.0 mm 0.00 in0.0 mm
03:10 AM 75.8°F24.3°C 65.3°F18.5°C 70% Calm Calm 2.3 mph3.7 kmh 29.84 in1010.5 mb - 0.00 in0.0 mm 0.00 in0.0 mm
03:05 AM 75.8°F24.3°C 65.7°F18.7°C 71% 1.2 mph NW1.9 kmh NW 2.3 mph3.7 kmh 29.84 in1010.5 mb - 0.00 in0.0 mm 0.00 in0.0 mm
03:00 AM 75.8°F24.3°C 65.7°F18.7°C 71% Calm Calm -- 29.84 in1010.5 mb - 0.00 in0.0 mm 0.00 in0.0 mm
02:55 AM 75.9°F24.4°C 66.2°F19.0°C 72% Calm Calm -- 29.84 in1010.5 mb - 0.00 in0.0 mm 0.00 in0.0 mm
02:50 AM 75.9°F24.4°C 66.2°F19.0°C 72% Calm Calm -- 29.84 in1010.5 mb - 0.00 in0.0 mm 0.00 in0.0 mm
02:45 AM 76.1°F24.5°C 66.4°F19.1°C 72% 1.2 mph NW1.9 kmh NW 3.5 mph5.6 kmh 29.84 in1010.5 mb - 0.00 in0.0 mm 0.00 in0.0 mm
02:40 AM 76.3°F24.6°C 66.6°F19.2°C 72% 2.3 mph NW3.7 kmh NW 3.5 mph5.6 kmh 29.84 in1010.5 mb - 0.00 in0.0 mm 0.00 in0.0 mm
02:35 AM 76.3°F24.6°C 66.6°F19.2°C 72% Calm Calm 2.3 mph3.7 kmh 29.84 in1010.5 mb - 0.00 in0.0 mm 0.00 in0.0 mm
02:30 AM 76.3°F24.6°C 66.6°F19.2°C 72% Calm Calm -- 29.85 in1010.8 mb - 0.00 in0.0 mm 0.00 in0.0 mm
02:25 AM 76.3°F24.6°C 66.6°F19.2°C 72% Calm Calm -- 29.85 in1010.8 mb - 0.00 in0.0 mm 0.00 in0.0 mm
02:20 AM 76.3°F24.6°C 66.2°F19.0°C 71% Calm Calm -- 29.85 in1010.8 mb - 0.00 in0.0 mm 0.00 in0.0 mm
02:15 AM 76.3°F24.6°C 66.6°F19.2°C 72% Calm Calm -- 29.85 in1010.8 mb - 0.00 in0.0 mm 0.00 in0.0 mm
02:10 AM 76.3°F24.6°C 66.6°F19.2°C 72% 1.2 mph NW1.9 kmh NW 3.5 mph5.6 kmh 29.85 in1010.8 mb - 0.00 in0.0 mm 0.00 in0.0 mm
02:05 AM 76.4°F24.7°C 66.7°F19.3°C 72% Calm Calm -- 29.85 in1010.8 mb - 0.00 in0.0 mm 0.00 in0.0 mm
02:00 AM 76.6°F24.8°C 66.9°F19.4°C 72% Calm Calm -- 29.85 in1010.8 mb - 0.00 in0.0 mm 0.00 in0.0 mm
01:55 AM 76.5°F24.7°C 66.8°F19.3°C 72% Calm Calm -- 29.85 in1010.8 mb - 0.00 in0.0 mm 0.00 in0.0 mm
01:50 AM 76.6°F24.8°C 66.9°F19.4°C 72% Calm Calm -- 29.85 in1010.8 mb - 0.00 in0.0 mm 0.00 in0.0 mm
01:45 AM 76.6°F24.8°C 67.3°F19.6°C 73% Calm Calm -- 29.85 in1010.8 mb - 0.00 in0.0 mm 0.00 in0.0 mm
01:40 AM 76.6°F24.8°C 67.3°F19.6°C 73% Calm Calm -- 29.86 in1011.2 mb - 0.00 in0.0 mm 0.00 in0.0 mm
01:35 AM 76.6°F24.8°C 67.3°F19.6°C 73% Calm Calm -- 29.86 in1011.2 mb - 0.00 in0.0 mm 0.00 in0.0 mm
01:30 AM 76.7°F24.8°C 67.3°F19.6°C 73% 1.2 mph NW1.9 kmh NW 2.3 mph3.7 kmh 29.86 in1011.2 mb - 0.00 in0.0 mm 0.00 in0.0 mm
01:25 AM 76.9°F24.9°C 67.2°F19.6°C 72% 2.3 mph NW3.7 kmh NW 3.5 mph5.6 kmh 29.86 in1011.2 mb - 0.00 in0.0 mm 0.00 in0.0 mm
01:20 AM 77.0°F25.0°C 67.3°F19.6°C 72% 2.3 mph NW3.7 kmh NW 3.5 mph5.6 kmh 29.86 in1011.2 mb - 0.00 in0.0 mm 0.00 in0.0 mm
01:15 AM 77.3°F25.2°C 67.6°F19.8°C 72% 2.3 mph NW3.7 kmh NW 3.5 mph5.6 kmh 29.86 in1011.2 mb - 0.00 in0.0 mm 0.00 in0.0 mm
01:10 AM 77.5°F25.3°C 67.3°F19.6°C 71% 1.2 mph NW1.9 kmh NW 2.3 mph3.7 kmh 29.86 in1011.2 mb - 0.00 in0.0 mm 0.00 in0.0 mm
01:05 AM 77.7°F25.4°C 67.5°F19.7°C 71% 1.2 mph NW1.9 kmh NW 3.5 mph5.6 kmh 29.86 in1011.2 mb - 0.00 in0.0 mm 0.00 in0.0 mm
12:55 AM 78.0°F25.6°C 68.3°F20.2°C 72% Calm Calm 2.3 mph3.7 kmh 29.87 in1011.5 mb - 0.00 in0.0 mm 0.00 in0.0 mm
12:50 AM 78.2°F25.7°C 68.1°F20.1°C 71% 1.2 mph NW1.9 kmh NW 2.3 mph3.7 kmh 29.86 in1011.2 mb - 0.00 in0.0 mm 0.00 in0.0 mm
12:45 AM 78.4°F25.8°C 68.3°F20.2°C 71% 1.2 mph NW1.9 kmh NW 3.5 mph5.6 kmh 29.86 in1011.2 mb - 0.00 in0.0 mm 0.00 in0.0 mm
12:40 AM 78.6°F25.9°C 67.6°F19.8°C 69% 1.2 mph NW1.9 kmh NW 3.5 mph5.6 kmh 29.86 in1011.2 mb - 0.00 in0.0 mm 0.00 in0.0 mm
12:35 AM 78.9°F26.1°C 67.4°F19.7°C 68% 1.2 mph NW1.9 kmh NW 3.5 mph5.6 kmh 29.86 in1011.2 mb - 0.00 in0.0 mm 0.00 in0.0 mm
12:30 AM 79.0°F26.1°C 67.5°F19.7°C 68% 2.3 mph NW3.7 kmh NW 3.5 mph5.6 kmh 29.86 in1011.2 mb - 0.00 in0.0 mm 0.00 in0.0 mm
12:25 AM 79.2°F26.2°C 67.7°F19.8°C 68% Calm Calm 2.3 mph3.7 kmh 29.86 in1011.2 mb - 0.00 in0.0 mm 0.00 in0.0 mm
12:20 AM 79.4°F26.3°C 67.5°F19.7°C 67% 1.2 mph NW1.9 kmh NW 3.5 mph5.6 kmh 29.86 in1011.2 mb - 0.00 in0.0 mm 0.00 in0.0 mm
12:15 AM 79.6°F26.4°C 67.2°F19.6°C 66% 1.2 mph NW1.9 kmh NW 2.3 mph3.7 kmh 29.86 in1011.2 mb - 0.00 in0.0 mm 0.00 in0.0 mm
12:10 AM 79.6°F26.4°C 67.3°F19.6°C 66% 2.3 mph NW3.7 kmh NW 2.3 mph3.7 kmh 29.86 in1011.2 mb - 0.00 in0.0 mm 0.00 in0.0 mm
12:05 AM 79.7°F26.5°C 66.8°F19.3°C 65% Calm Calm -- 29.86 in1011.2 mb - 0.00 in0.0 mm 0.00 in0.0 mm
12:00 AM 79.7°F26.5°C 66.9°F19.4°C 65% 1.2 mph NW1.9 kmh NW 2.3 mph3.7 kmh 29.86 in1011.2 mb - 0.00 in0.0 mm 0.00 in0.0 mm